Time,TemperatureF,DewpointF,PressureIn,WindDirection,WindDirectionDegrees,WindSpeedMPH,WindSpeedGustMPH,Humidity,HourlyPrecipIn,Conditions,Clouds,dailyrainin,SoftwareType,DateUTC
2013-03-28 00:00:00,40.1,34.3,29.65,North,-999,-999.0,-999.0,73,-99.99,,,-99.99,Homeseer,2013-03-28 04:00:00,
2013-03-28 00:01:00,39.9,33.9,29.65,North,-999,-999.0,-999.0,72,-99.99,,,-99.99,Homeseer,2013-03-28 04:01:00,
2013-03-28 00:04:00,40.0,34.5,29.65,North,-999,-999.0,-999.0,74,-99.99,,,-99.99,Homeseer,2013-03-28 04:04:00,
2013-03-28 00:09:00,39.5,34.5,29.65,North,-999,-999.0,-999.0,76,-99.99,,,-99.99,Homeseer,2013-03-28 04:09:00,
2013-03-28 00:14:00,39.4,35.1,29.65,North,-999,-999.0,-999.0,79,-99.99,,,-99.99,Homeseer,2013-03-28 04:14:00,
2013-03-28 00:19:00,39.4,35.1,29.65,North,-999,-999.0,-999.0,79,-99.99,,,-99.99,Homeseer,2013-03-28 04:19:00,
2013-03-28 00:24:00,39.0,34.7,29.65,North,-999,-999.0,-999.0,79,-99.99,,,-99.99,Homeseer,2013-03-28 04:24:00,
2013-03-28 00:29:00,39.1,35.0,29.65,North,-999,-999.0,-999.0,80,-99.99,,,-99.99,Homeseer,2013-03-28 04:29:00,
2013-03-28 00:34:00,38.8,34.7,29.65,North,-999,-999.0,-999.0,80,-99.99,,,-99.99,Homeseer,2013-03-28 04:34:00,
2013-03-28 00:39:00,38.8,34.7,29.65,North,-999,-999.0,-999.0,80,-99.99,,,-99.99,Homeseer,2013-03-28 04:39:00,
2013-03-28 00:44:00,38.9,34.6,29.65,North,-999,-999.0,-999.0,79,-99.99,,,-99.99,Homeseer,2013-03-28 04:44:00,
2013-03-28 00:49:00,38.8,34.7,29.65,North,-999,-999.0,-999.0,80,-99.99,,,-99.99,Homeseer,2013-03-28 04:49:00,
2013-03-28 00:54:00,38.6,34.5,29.65,North,-999,-999.0,-999.0,80,-99.99,,,-99.99,Homeseer,2013-03-28 04:54:00,
2013-03-28 00:59:00,38.4,34.6,29.65,North,-999,-999.0,-999.0,81,-99.99,,,-99.99,Homeseer,2013-03-28 04:59:00,
2013-03-28 01:04:00,38.4,34.6,29.65,North,-999,-999.0,-999.0,81,-99.99,,,-99.99,Homeseer,2013-03-28 05:04:00,
2013-03-28 01:09:00,38.6,34.7,29.65,North,-999,-999.0,-999.0,81,-99.99,,,-99.99,Homeseer,2013-03-28 05:09:00,
2013-03-28 01:14:00,38.6,35.0,29.65,North,-999,-999.0,-999.0,82,-99.99,,,-99.99,Homeseer,2013-03-28 05:14:00,
2013-03-28 01:19:00,38.7,34.8,29.65,North,-999,-999.0,-999.0,81,-99.99,,,-99.99,Homeseer,2013-03-28 05:19:00,
2013-03-28 01:24:00,38.7,35.1,29.65,North,-999,-999.0,-999.0,82,-99.99,,,-99.99,Homeseer,2013-03-28 05:24:00,
2013-03-28 01:29:00,38.8,35.2,29.65,North,-999,-999.0,-999.0,82,-99.99,,,-99.99,Homeseer,2013-03-28 05:29:00,
2013-03-28 01:34:00,38.3,34.9,29.65,North,-999,-999.0,-999.0,83,-99.99,,,-99.99,Homeseer,2013-03-28 05:34:00,
2013-03-28 01:39:00,38.6,35.0,29.65,North,-999,-999.0,-999.0,82,-99.99,,,-99.99,Homeseer,2013-03-28 05:39:00,
2013-03-28 01:44:00,38.2,34.8,29.65,North,-999,-999.0,-999.0,83,-99.99,,,-99.99,Homeseer,2013-03-28 05:44:00,
2013-03-28 01:49:00,38.3,35.1,29.65,North,-999,-999.0,-999.0,84,-99.99,,,-99.99,Homeseer,2013-03-28 05:49:00,
2013-03-28 01:54:00,38.3,35.1,29.65,North,-999,-999.0,-999.0,84,-99.99,,,-99.99,Homeseer,2013-03-28 05:54:00,
2013-03-28 01:59:00,38.3,35.1,29.65,North,-999,-999.0,-999.0,84,-99.99,,,-99.99,Homeseer,2013-03-28 05:59:00,
2013-03-28 02:04:00,38.0,35.0,29.65,North,-999,-999.0,-999.0,85,-99.99,,,-99.99,Homeseer,2013-03-28 06:04:00,
2013-03-28 02:09:00,37.8,35.0,29.65,North,-999,-999.0,-999.0,86,-99.99,,,-99.99,Homeseer,2013-03-28 06:09:00,
2013-03-28 02:14:00,37.8,35.0,29.65,North,-999,-999.0,-999.0,86,-99.99,,,-99.99,Homeseer,2013-03-28 06:14:00,
2013-03-28 02:19:00,37.8,35.3,29.65,North,-999,-999.0,-999.0,87,-99.99,,,-99.99,Homeseer,2013-03-28 06:19:00,
2013-03-28 02:24:00,37.7,35.0,29.65,North,-999,-999.0,-999.0,86,-99.99,,,-99.99,Homeseer,2013-03-28 06:24:00,
2013-03-28 02:29:00,37.6,35.1,29.65,North,-999,-999.0,-999.0,87,-99.99,,,-99.99,Homeseer,2013-03-28 06:29:00,
2013-03-28 02:34:00,37.7,35.2,29.65,North,-999,-999.0,-999.0,87,-99.99,,,-99.99,Homeseer,2013-03-28 06:34:00,
2013-03-28 02:39:00,37.4,35.3,29.65,North,-999,-999.0,-999.0,89,-99.99,,,-99.99,Homeseer,2013-03-28 06:39:00,
2013-03-28 02:44:00,37.3,35.4,29.65,North,-999,-999.0,-999.0,90,-99.99,,,-99.99,Homeseer,2013-03-28 06:44:00,
2013-03-28 02:49:00,37.7,35.4,29.65,North,-999,-999.0,-999.0,88,-99.99,,,-99.99,Homeseer,2013-03-28 06:49:00,
2013-03-28 02:54:00,37.4,35.1,29.65,North,-999,-999.0,-999.0,88,-99.99,,,-99.99,Homeseer,2013-03-28 06:54:00,
2013-03-28 02:59:00,37.4,35.3,29.65,North,-999,-999.0,-999.0,89,-99.99,,,-99.99,Homeseer,2013-03-28 06:59:00,
2013-03-28 03:04:00,37.4,35.3,29.65,North,-999,-999.0,-999.0,89,-99.99,,,-99.99,Homeseer,2013-03-28 07:04:00,
2013-03-28 03:09:00,37.4,35.5,29.65,North,-999,-999.0,-999.0,90,-99.99,,,-99.99,Homeseer,2013-03-28 07:09:00,
2013-03-28 03:14:00,37.6,35.5,29.65,North,-999,-999.0,-999.0,89,-99.99,,,-99.99,Homeseer,2013-03-28 07:14:00,
2013-03-28 03:19:00,37.3,35.2,29.65,North,-999,-999.0,-999.0,89,-99.99,,,-99.99,Homeseer,2013-03-28 07:19:00,
2013-03-28 03:24:00,37.6,35.5,29.65,North,-999,-999.0,-999.0,89,-99.99,,,-99.99,Homeseer,2013-03-28 07:24:00,
2013-03-28 03:29:00,37.6,35.7,29.65,North,-999,-999.0,-999.0,90,-99.99,,,-99.99,Homeseer,2013-03-28 07:29:00,
2013-03-28 03:34:00,37.2,35.5,29.65,North,-999,-999.0,-999.0,91,-99.99,,,-99.99,Homeseer,2013-03-28 07:34:00,
2013-03-28 03:39:00,37.2,35.7,29.66,North,-999,-999.0,-999.0,92,-99.99,,,-99.99,Homeseer,2013-03-28 07:39:00,
2013-03-28 03:44:00,37.1,35.2,29.66,North,-999,-999.0,-999.0,90,-99.99,,,-99.99,Homeseer,2013-03-28 07:44:00,
2013-03-28 03:49:00,37.2,35.5,29.66,North,-999,-999.0,-999.0,91,-99.99,,,-99.99,Homeseer,2013-03-28 07:49:00,
2013-03-28 03:54:00,37.2,35.5,29.66,North,-999,-999.0,-999.0,91,-99.99,,,-99.99,Homeseer,2013-03-28 07:54:00,
2013-03-28 03:59:00,37.1,35.2,29.66,North,-999,-999.0,-999.0,90,-99.99,,,-99.99,Homeseer,2013-03-28 07:59:00,
2013-03-28 04:04:00,37.1,35.2,29.66,North,-999,-999.0,-999.0,90,-99.99,,,-99.99,Homeseer,2013-03-28 08:04:00,
2013-03-28 04:09:00,37.0,35.5,29.66,North,-999,-999.0,-999.0,92,-99.99,,,-99.99,Homeseer,2013-03-28 08:09:00,
2013-03-28 04:14:00,37.0,35.5,29.66,North,-999,-999.0,-999.0,92,-99.99,,,-99.99,Homeseer,2013-03-28 08:14:00,
2013-03-28 04:19:00,37.0,35.5,29.66,North,-999,-999.0,-999.0,92,-99.99,,,-99.99,Homeseer,2013-03-28 08:19:00,
2013-03-28 04:24:00,36.9,35.6,29.66,North,-999,-999.0,-999.0,93,-99.99,,,-99.99,Homeseer,2013-03-28 08:24:00,
2013-03-28 04:29:00,36.8,35.3,29.67,North,-999,-999.0,-999.0,92,-99.99,,,-99.99,Homeseer,2013-03-28 08:29:00,
2013-03-28 04:34:00,36.9,35.4,29.66,North,-999,-999.0,-999.0,92,-99.99,,,-99.99,Homeseer,2013-03-28 08:34:00,
2013-03-28 04:39:00,36.8,35.5,29.66,North,-999,-999.0,-999.0,93,-99.99,,,-99.99,Homeseer,2013-03-28 08:39:00,
2013-03-28 04:44:00,36.9,35.6,29.66,North,-999,-999.0,-999.0,93,-99.99,,,-99.99,Homeseer,2013-03-28 08:44:00,
2013-03-28 04:49:00,36.9,35.4,29.66,North,-999,-999.0,-999.0,92,-99.99,,,-99.99,Homeseer,2013-03-28 08:49:00,
2013-03-28 04:54:00,36.9,35.4,29.66,North,-999,-999.0,-999.0,92,-99.99,,,-99.99,Homeseer,2013-03-28 08:54:00,
2013-03-28 04:59:00,36.8,35.5,29.67,North,-999,-999.0,-999.0,93,-99.99,,,-99.99,Homeseer,2013-03-28 08:59:00,
2013-03-28 05:04:00,36.6,35.3,29.66,North,-999,-999.0,-999.0,93,-99.99,,,-99.99,Homeseer,2013-03-28 09:04:00,
2013-03-28 05:09:00,36.5,35.2,29.67,North,-999,-999.0,-999.0,93,-99.99,,,-99.99,Homeseer,2013-03-28 09:09:00,
2013-03-28 05:14:00,36.5,35.2,29.67,North,-999,-999.0,-999.0,93,-99.99,,,-99.99,Homeseer,2013-03-28 09:14:00,
2013-03-28 05:19:00,36.6,35.1,29.67,North,-999,-999.0,-999.0,92,-99.99,,,-99.99,Homeseer,2013-03-28 09:19:00,
2013-03-28 05:24:00,36.4,34.9,29.67,North,-999,-999.0,-999.0,92,-99.99,,,-99.99,Homeseer,2013-03-28 09:24:00,
2013-03-28 05:29:00,36.3,34.8,29.67,North,-999,-999.0,-999.0,92,-99.99,,,-99.99,Homeseer,2013-03-28 09:29:00,
2013-03-28 05:34:00,36.1,34.6,29.67,North,-999,-999.0,-999.0,92,-99.99,,,-99.99,Homeseer,2013-03-28 09:34:00,
2013-03-28 05:39:00,35.8,34.3,29.67,North,-999,-999.0,-999.0,92,-99.99,,,-99.99,Homeseer,2013-03-28 09:39:00,
2013-03-28 05:44:00,35.5,34.0,29.68,North,-999,-999.0,-999.0,92,-99.99,,,-99.99,Homeseer,2013-03-28 09:44:00,
2013-03-28 05:49:00,35.3,33.8,29.67,North,-999,-999.0,-999.0,92,-99.99,,,-99.99,Homeseer,2013-03-28 09:49:00,
2013-03-28 05:54:00,35.1,33.8,29.68,North,-999,-999.0,-999.0,93,-99.99,,,-99.99,Homeseer,2013-03-28 09:54:00,
2013-03-28 05:59:00,35.0,33.9,29.68,North,-999,-999.0,-999.0,94,-99.99,,,-99.99,Homeseer,2013-03-28 09:59:00,
2013-03-28 06:04:00,34.8,33.5,29.68,North,-999,-999.0,-999.0,93,-99.99,,,-99.99,Homeseer,2013-03-28 10:04:00,
2013-03-28 06:09:00,34.6,33.3,29.69,North,-999,-999.0,-999.0,93,-99.99,,,-99.99,Homeseer,2013-03-28 10:09:00,
2013-03-28 06:14:00,34.5,33.4,29.68,North,-999,-999.0,-999.0,94,-99.99,,,-99.99,Homeseer,2013-03-28 10:14:00,
2013-03-28 06:19:00,34.4,33.3,29.69,North,-999,-999.0,-999.0,94,-99.99,,,-99.99,Homeseer,2013-03-28 10:19:00,
2013-03-28 06:24:00,34.4,33.3,29.69,North,-999,-999.0,-999.0,94,-99.99,,,-99.99,Homeseer,2013-03-28 10:24:00,
2013-03-28 06:29:00,34.3,33.2,29.69,North,-999,-999.0,-999.0,94,-99.99,,,-99.99,Homeseer,2013-03-28 10:29:00,
2013-03-28 06:34:00,34.3,33.0,29.69,North,-999,-999.0,-999.0,93,-99.99,,,-99.99,Homeseer,2013-03-28 10:34:00,
2013-03-28 06:39:00,34.2,32.9,29.70,North,-999,-999.0,-999.0,93,-99.99,,,-99.99,Homeseer,2013-03-28 10:39:00,
2013-03-28 06:44:00,34.0,33.1,29.70,North,-999,-999.0,-999.0,95,-99.99,,,-99.99,Homeseer,2013-03-28 10:44:00,
2013-03-28 06:49:00,34.0,32.9,29.70,North,-999,-999.0,-999.0,94,-99.99,,,-99.99,Homeseer,2013-03-28 10:49:00,
2013-03-28 06:54:00,33.8,32.9,29.70,North,-999,-999.0,-999.0,95,-99.99,,,-99.99,Homeseer,2013-03-28 10:54:00,
2013-03-28 06:59:00,34.0,33.1,29.71,North,-999,-999.0,-999.0,95,-99.99,,,-99.99,Homeseer,2013-03-28 10:59:00,
2013-03-28 07:04:00,34.0,33.1,29.71,North,-999,-999.0,-999.0,95,-99.99,,,-99.99,Homeseer,2013-03-28 11:04:00,
2013-03-28 07:09:00,34.2,33.3,29.71,North,-999,-999.0,-999.0,95,-99.99,,,-99.99,Homeseer,2013-03-28 11:09:00,
2013-03-28 07:15:00,34.5,33.6,29.71,North,-999,-999.0,-999.0,95,-99.99,,,-99.99,Homeseer,2013-03-28 11:15:00,
2013-03-28 07:20:00,34.7,33.8,29.71,North,-999,-999.0,-999.0,95,-99.99,,,-99.99,Homeseer,2013-03-28 11:20:00,
2013-03-28 07:25:00,35.0,34.1,29.72,North,-999,-999.0,-999.0,95,-99.99,,,-99.99,Homeseer,2013-03-28 11:25:00,
2013-03-28 07:30:00,35.4,34.1,29.72,North,-999,-999.0,-999.0,93,-99.99,,,-99.99,Homeseer,2013-03-28 11:30:00,
2013-03-28 07:35:00,35.8,34.9,29.72,North,-999,-999.0,-999.0,95,-99.99,,,-99.99,Homeseer,2013-03-28 11:35:00,
2013-03-28 07:40:00,36.2,35.5,29.72,North,-999,-999.0,-999.0,96,-99.99,,,-99.99,Homeseer,2013-03-28 11:40:00,
2013-03-28 07:45:00,36.5,35.6,29.73,North,-999,-999.0,-999.0,95,-99.99,,,-99.99,Homeseer,2013-03-28 11:45:00,
2013-03-28 07:50:00,36.9,36.0,29.73,North,-999,-999.0,-999.0,95,-99.99,,,-99.99,Homeseer,2013-03-28 11:50:00,
2013-03-28 07:55:00,37.2,36.3,29.73,North,-999,-999.0,-999.0,95,-99.99,,,-99.99,Homeseer,2013-03-28 11:55:00,
2013-03-28 08:00:00,37.7,36.6,29.73,North,-999,-999.0,-999.0,94,-99.99,,,-99.99,Homeseer,2013-03-28 12:00:00,
2013-03-28 08:05:00,37.8,36.7,29.73,North,-999,-999.0,-999.0,94,-99.99,,,-99.99,Homeseer,2013-03-28 12:05:00,
2013-03-28 08:10:00,38.3,37.0,29.73,North,-999,-999.0,-999.0,93,-99.99,,,-99.99,Homeseer,2013-03-28 12:10:00,
2013-03-28 08:15:00,38.6,37.3,29.73,North,-999,-999.0,-999.0,93,-99.99,,,-99.99,Homeseer,2013-03-28 12:15:00,
2013-03-28 08:20:00,38.9,37.4,29.73,North,-999,-999.0,-999.0,92,-99.99,,,-99.99,Homeseer,2013-03-28 12:20:00,
2013-03-28 08:25:00,39.1,37.4,29.73,North,-999,-999.0,-999.0,91,-99.99,,,-99.99,Homeseer,2013-03-28 12:25:00,
2013-03-28 08:30:00,39.4,37.5,29.74,North,-999,-999.0,-999.0,90,-99.99,,,-99.99,Homeseer,2013-03-28 12:30:00,
2013-03-28 08:35:00,39.6,37.2,29.74,North,-999,-999.0,-999.0,88,-99.99,,,-99.99,Homeseer,2013-03-28 12:35:00,
2013-03-28 08:40:00,39.9,37.3,29.74,North,-999,-999.0,-999.0,87,-99.99,,,-99.99,Homeseer,2013-03-28 12:40:00,
2013-03-28 08:45:00,40.4,37.8,29.74,North,-999,-999.0,-999.0,87,-99.99,,,-99.99,Homeseer,2013-03-28 12:45:00,
2013-03-28 08:50:00,40.8,37.6,29.74,North,-999,-999.0,-999.0,84,-99.99,,,-99.99,Homeseer,2013-03-28 12:50:00,
2013-03-28 08:55:00,41.0,37.3,29.74,North,-999,-999.0,-999.0,82,-99.99,,,-99.99,Homeseer,2013-03-28 12:55:00,
2013-03-28 09:00:00,41.5,37.8,29.74,North,-999,-999.0,-999.0,82,-99.99,,,-99.99,Homeseer,2013-03-28 13:00:00,
2013-03-28 09:05:00,41.9,38.0,29.74,North,-999,-999.0,-999.0,81,-99.99,,,-99.99,Homeseer,2013-03-28 13:05:00,
2013-03-28 09:10:00,41.9,37.5,29.74,North,-999,-999.0,-999.0,79,-99.99,,,-99.99,Homeseer,2013-03-28 13:10:00,
2013-03-28 09:15:00,42.3,37.4,29.74,North,-999,-999.0,-999.0,77,-99.99,,,-99.99,Homeseer,2013-03-28 13:15:00,
2013-03-28 09:20:00,42.5,37.6,29.75,North,-999,-999.0,-999.0,77,-99.99,,,-99.99,Homeseer,2013-03-28 13:20:00,
2013-03-28 09:25:00,42.5,36.6,29.75,North,-999,-999.0,-999.0,73,-99.99,,,-99.99,Homeseer,2013-03-28 13:25:00,
2013-03-28 09:30:00,42.8,36.4,29.75,North,-999,-999.0,-999.0,71,-99.99,,,-99.99,Homeseer,2013-03-28 13:30:00,
2013-03-28 09:35:00,43.3,37.4,29.75,North,-999,-999.0,-999.0,73,-99.99,,,-99.99,Homeseer,2013-03-28 13:35:00,
2013-03-28 09:40:00,44.1,38.2,29.75,North,-999,-999.0,-999.0,73,-99.99,,,-99.99,Homeseer,2013-03-28 13:40:00,
2013-03-28 09:45:00,43.7,36.7,29.75,North,-999,-999.0,-999.0,69,-99.99,,,-99.99,Homeseer,2013-03-28 13:45:00,
2013-03-28 09:50:00,43.5,36.3,29.75,North,-999,-999.0,-999.0,68,-99.99,,,-99.99,Homeseer,2013-03-28 13:50:00,
2013-03-28 09:55:00,44.0,37.3,29.75,North,-999,-999.0,-999.0,70,-99.99,,,-99.99,Homeseer,2013-03-28 13:55:00,
2013-03-28 10:00:00,44.8,38.1,29.75,North,-999,-999.0,-999.0,70,-99.99,,,-99.99,Homeseer,2013-03-28 14:00:00,
2013-03-28 10:05:00,44.9,37.6,29.75,North,-999,-999.0,-999.0,68,-99.99,,,-99.99,Homeseer,2013-03-28 14:05:00,
2013-03-28 10:10:00,44.9,37.3,29.75,North,-999,-999.0,-999.0,67,-99.99,,,-99.99,Homeseer,2013-03-28 14:10:00,
2013-03-28 10:15:00,44.8,37.5,29.75,North,-999,-999.0,-999.0,68,-99.99,,,-99.99,Homeseer,2013-03-28 14:15:00,
2013-03-28 10:20:00,44.4,36.0,29.76,North,-999,-999.0,-999.0,64,-99.99,,,-99.99,Homeseer,2013-03-28 14:20:00,
2013-03-28 10:25:00,44.4,35.5,29.76,North,-999,-999.0,-999.0,62,-99.99,,,-99.99,Homeseer,2013-03-28 14:25:00,
2013-03-28 10:30:00,44.9,36.5,29.76,North,-999,-999.0,-999.0,64,-99.99,,,-99.99,Homeseer,2013-03-28 14:30:00,
2013-03-28 10:35:00,45.1,35.8,29.76,North,-999,-999.0,-999.0,61,-99.99,,,-99.99,Homeseer,2013-03-28 14:35:00,
2013-03-28 10:40:00,45.5,37.1,29.76,North,-999,-999.0,-999.0,64,-99.99,,,-99.99,Homeseer,2013-03-28 14:40:00,
2013-03-28 10:45:00,46.0,36.7,29.75,North,-999,-999.0,-999.0,61,-99.99,,,-99.99,Homeseer,2013-03-28 14:45:00,
2013-03-28 10:50:00,46.1,36.8,29.76,North,-999,-999.0,-999.0,61,-99.99,,,-99.99,Homeseer,2013-03-28 14:50:00,
2013-03-28 10:55:00,46.0,36.7,29.76,North,-999,-999.0,-999.0,61,-99.99,,,-99.99,Homeseer,2013-03-28 14:55:00,
2013-03-28 11:00:00,46.2,36.9,29.76,North,-999,-999.0,-999.0,61,-99.99,,,-99.99,Homeseer,2013-03-28 15:00:00,
2013-03-28 11:05:00,46.8,37.4,29.76,North,-999,-999.0,-999.0,61,-99.99,,,-99.99,Homeseer,2013-03-28 15:05:00,
2013-03-28 11:10:00,47.1,36.8,29.76,North,-999,-999.0,-999.0,58,-99.99,,,-99.99,Homeseer,2013-03-28 15:10:00,
2013-03-28 11:15:00,46.3,35.4,29.77,North,-999,-999.0,-999.0,56,-99.99,,,-99.99,Homeseer,2013-03-28 15:15:00,
2013-03-28 11:20:00,45.9,34.4,29.76,North,-999,-999.0,-999.0,54,-99.99,,,-99.99,Homeseer,2013-03-28 15:20:00,
2013-03-28 11:25:00,45.9,35.7,29.76,North,-999,-999.0,-999.0,58,-99.99,,,-99.99,Homeseer,2013-03-28 15:25:00,
2013-03-28 11:30:00,46.4,36.4,29.76,North,-999,-999.0,-999.0,59,-99.99,,,-99.99,Homeseer,2013-03-28 15:30:00,
2013-03-28 11:35:00,46.2,35.3,29.76,North,-999,-999.0,-999.0,56,-99.99,,,-99.99,Homeseer,2013-03-28 15:35:00,
2013-03-28 11:40:00,46.6,36.6,29.76,North,-999,-999.0,-999.0,59,-99.99,,,-99.99,Homeseer,2013-03-28 15:40:00,
2013-03-28 11:45:00,47.3,36.6,29.75,North,-999,-999.0,-999.0,57,-99.99,,,-99.99,Homeseer,2013-03-28 15:45:00,
2013-03-28 11:50:00,47.4,36.1,29.75,North,-999,-999.0,-999.0,55,-99.99,,,-99.99,Homeseer,2013-03-28 15:50:00,
2013-03-28 11:55:00,46.6,33.3,29.75,North,-999,-999.0,-999.0,49,-99.99,,,-99.99,Homeseer,2013-03-28 15:55:00,
2013-03-28 12:00:00,47.6,36.3,29.75,North,-999,-999.0,-999.0,55,-99.99,,,-99.99,Homeseer,2013-03-28 16:00:00,
2013-03-28 12:05:00,49.0,37.2,29.75,North,-999,-999.0,-999.0,54,-99.99,,,-99.99,Homeseer,2013-03-28 16:05:00,
2013-03-28 12:10:00,49.5,36.6,29.76,North,-999,-999.0,-999.0,51,-99.99,,,-99.99,Homeseer,2013-03-28 16:10:00,
2013-03-28 12:15:00,49.5,35.5,29.75,North,-999,-999.0,-999.0,48,-99.99,,,-99.99,Homeseer,2013-03-28 16:15:00,
2013-03-28 12:20:00,48.4,34.2,29.75,North,-999,-999.0,-999.0,47,-99.99,,,-99.99,Homeseer,2013-03-28 16:20:00,
2013-03-28 12:25:00,48.9,35.0,29.75,North,-999,-999.0,-999.0,48,-99.99,,,-99.99,Homeseer,2013-03-28 16:25:00,
2013-03-28 12:30:00,50.2,36.5,29.75,North,-999,-999.0,-999.0,49,-99.99,,,-99.99,Homeseer,2013-03-28 16:30:00,
2013-03-28 12:35:00,50.6,36.5,29.75,North,-999,-999.0,-999.0,48,-99.99,,,-99.99,Homeseer,2013-03-28 16:35:00,
2013-03-28 12:40:00,50.3,35.5,29.75,North,-999,-999.0,-999.0,46,-99.99,,,-99.99,Homeseer,2013-03-28 16:40:00,
2013-03-28 12:45:00,50.2,35.8,29.75,North,-999,-999.0,-999.0,47,-99.99,,,-99.99,Homeseer,2013-03-28 16:45:00,
2013-03-28 12:50:00,49.1,34.0,29.74,North,-999,-999.0,-999.0,45,-99.99,,,-99.99,Homeseer,2013-03-28 16:50:00,
2013-03-28 12:55:00,48.1,33.5,29.74,North,-999,-999.0,-999.0,46,-99.99,,,-99.99,Homeseer,2013-03-28 16:55:00,
2013-03-28 13:00:00,48.9,35.4,29.75,North,-999,-999.0,-999.0,49,-99.99,,,-99.99,Homeseer,2013-03-28 17:00:00,
2013-03-28 13:05:00,48.6,33.2,29.74,North,-999,-999.0,-999.0,44,-99.99,,,-99.99,Homeseer,2013-03-28 17:05:00,
2013-03-28 13:10:00,48.4,34.2,29.74,North,-999,-999.0,-999.0,47,-99.99,,,-99.99,Homeseer,2013-03-28 17:10:00,
2013-03-28 13:15:00,48.2,34.0,29.73,North,-999,-999.0,-999.0,47,-99.99,,,-99.99,Homeseer,2013-03-28 17:15:00,
2013-03-28 13:20:00,48.7,34.4,29.73,North,-999,-999.0,-999.0,47,-99.99,,,-99.99,Homeseer,2013-03-28 17:20:00,
2013-03-28 13:25:00,48.9,34.2,29.73,North,-999,-999.0,-999.0,46,-99.99,,,-99.99,Homeseer,2013-03-28 17:25:00,
2013-03-28 13:30:00,49.6,35.2,29.73,North,-999,-999.0,-999.0,47,-99.99,,,-99.99,Homeseer,2013-03-28 17:30:00,
2013-03-28 13:35:00,50.2,35.4,29.73,North,-999,-999.0,-999.0,46,-99.99,,,-99.99,Homeseer,2013-03-28 17:35:00,
2013-03-28 13:40:00,49.4,33.0,29.73,North,-999,-999.0,-999.0,42,-99.99,,,-99.99,Homeseer,2013-03-28 17:40:00,
2013-03-28 13:45:00,49.4,34.3,29.73,North,-999,-999.0,-999.0,45,-99.99,,,-99.99,Homeseer,2013-03-28 17:45:00,
2013-03-28 13:50:00,49.7,33.7,29.73,North,-999,-999.0,-999.0,43,-99.99,,,-99.99,Homeseer,2013-03-28 17:50:00,
2013-03-28 13:55:00,49.9,35.1,29.73,North,-999,-999.0,-999.0,46,-99.99,,,-99.99,Homeseer,2013-03-28 17:55:00,
2013-03-28 14:00:00,48.8,33.3,29.73,North,-999,-999.0,-999.0,44,-99.99,,,-99.99,Homeseer,2013-03-28 18:00:00,
2013-03-28 14:05:00,48.5,33.5,29.73,North,-999,-999.0,-999.0,45,-99.99,,,-99.99,Homeseer,2013-03-28 18:05:00,
2013-03-28 14:10:00,48.4,34.2,29.73,North,-999,-999.0,-999.0,47,-99.99,,,-99.99,Homeseer,2013-03-28 18:10:00,
2013-03-28 14:15:00,48.1,35.4,29.73,North,-999,-999.0,-999.0,51,-99.99,,,-99.99,Homeseer,2013-03-28 18:15:00,
2013-03-28 14:20:00,48.0,35.3,29.73,North,-999,-999.0,-999.0,51,-99.99,,,-99.99,Homeseer,2013-03-28 18:20:00,
2013-03-28 14:25:00,47.6,34.9,29.74,North,-999,-999.0,-999.0,51,-99.99,,,-99.99,Homeseer,2013-03-28 18:25:00,
2013-03-28 14:30:00,47.6,35.6,29.74,North,-999,-999.0,-999.0,53,-99.99,,,-99.99,Homeseer,2013-03-28 18:30:00,
2013-03-28 14:35:00,47.2,35.2,29.74,North,-999,-999.0,-999.0,53,-99.99,,,-99.99,Homeseer,2013-03-28 18:35:00,
2013-03-28 14:40:00,46.9,35.9,29.74,North,-999,-999.0,-999.0,56,-99.99,,,-99.99,Homeseer,2013-03-28 18:40:00,
2013-03-28 14:45:00,46.9,35.9,29.74,North,-999,-999.0,-999.0,56,-99.99,,,-99.99,Homeseer,2013-03-28 18:45:00,
2013-03-28 14:50:00,47.2,36.2,29.73,North,-999,-999.0,-999.0,56,-99.99,,,-99.99,Homeseer,2013-03-28 18:50:00,
2013-03-28 14:55:00,47.3,36.0,29.73,North,-999,-999.0,-999.0,55,-99.99,,,-99.99,Homeseer,2013-03-28 18:55:00,
2013-03-28 15:00:00,47.6,35.6,29.73,North,-999,-999.0,-999.0,53,-99.99,,,-99.99,Homeseer,2013-03-28 19:00:00,
2013-03-28 15:05:00,48.5,36.4,29.73,North,-999,-999.0,-999.0,53,-99.99,,,-99.99,Homeseer,2013-03-28 19:05:00,
2013-03-28 15:10:00,49.1,35.9,29.73,North,-999,-999.0,-999.0,50,-99.99,,,-99.99,Homeseer,2013-03-28 19:10:00,
2013-03-28 15:15:00,49.4,35.4,29.73,North,-999,-999.0,-999.0,48,-99.99,,,-99.99,Homeseer,2013-03-28 19:15:00,
2013-03-28 15:20:00,49.6,36.4,29.73,North,-999,-999.0,-999.0,50,-99.99,,,-99.99,Homeseer,2013-03-28 19:20:00,
2013-03-28 15:25:00,49.8,35.8,29.72,North,-999,-999.0,-999.0,48,-99.99,,,-99.99,Homeseer,2013-03-28 19:25:00,
2013-03-28 15:30:00,49.6,34.9,29.72,North,-999,-999.0,-999.0,46,-99.99,,,-99.99,Homeseer,2013-03-28 19:30:00,
2013-03-28 15:35:00,49.2,34.5,29.72,North,-999,-999.0,-999.0,46,-99.99,,,-99.99,Homeseer,2013-03-28 19:35:00,
2013-03-28 15:40:00,48.8,34.5,29.73,North,-999,-999.0,-999.0,47,-99.99,,,-99.99,Homeseer,2013-03-28 19:40:00,
2013-03-28 15:45:00,48.4,33.8,29.73,North,-999,-999.0,-999.0,46,-99.99,,,-99.99,Homeseer,2013-03-28 19:45:00,
2013-03-28 15:50:00,48.0,33.8,29.73,North,-999,-999.0,-999.0,47,-99.99,,,-99.99,Homeseer,2013-03-28 19:50:00,
2013-03-28 15:55:00,47.4,33.2,29.73,North,-999,-999.0,-999.0,47,-99.99,,,-99.99,Homeseer,2013-03-28 19:55:00,
2013-03-28 16:00:00,47.4,34.7,29.74,North,-999,-999.0,-999.0,51,-99.99,,,-99.99,Homeseer,2013-03-28 20:00:00,
2013-03-28 16:05:00,47.1,34.1,29.74,North,-999,-999.0,-999.0,50,-99.99,,,-99.99,Homeseer,2013-03-28 20:05:00,
2013-03-28 16:10:00,47.1,34.1,29.74,North,-999,-999.0,-999.0,50,-99.99,,,-99.99,Homeseer,2013-03-28 20:10:00,
2013-03-28 16:15:00,47.1,33.4,29.75,North,-999,-999.0,-999.0,48,-99.99,,,-99.99,Homeseer,2013-03-28 20:15:00,
2013-03-28 16:20:00,47.3,34.6,29.75,North,-999,-999.0,-999.0,51,-99.99,,,-99.99,Homeseer,2013-03-28 20:20:00,
2013-03-28 16:25:00,46.7,34.8,29.76,North,-999,-999.0,-999.0,53,-99.99,,,-99.99,Homeseer,2013-03-28 20:25:00,
2013-03-28 16:30:00,46.6,36.0,29.76,North,-999,-999.0,-999.0,57,-99.99,,,-99.99,Homeseer,2013-03-28 20:30:00,
2013-03-28 16:35:00,46.4,35.8,29.75,North,-999,-999.0,-999.0,57,-99.99,,,-99.99,Homeseer,2013-03-28 20:35:00,
2013-03-28 16:40:00,46.2,35.3,29.76,North,-999,-999.0,-999.0,56,-99.99,,,-99.99,Homeseer,2013-03-28 20:40:00,
2013-03-28 16:47:00,46.6,36.3,29.76,North,-999,-999.0,-999.0,58,-99.99,,,-99.99,Homeseer,2013-03-28 20:47:00,
2013-03-28 16:52:00,46.6,35.3,29.76,North,-999,-999.0,-999.0,55,-99.99,,,-99.99,Homeseer,2013-03-28 20:52:00,
2013-03-28 16:57:00,46.8,35.5,29.76,North,-999,-999.0,-999.0,55,-99.99,,,-99.99,Homeseer,2013-03-28 20:57:00,
2013-03-28 17:03:00,46.8,35.9,29.76,North,-999,-999.0,-999.0,56,-99.99,,,-99.99,Homeseer,2013-03-28 21:03:00,
2013-03-28 17:08:00,46.7,35.4,29.76,North,-999,-999.0,-999.0,55,-99.99,,,-99.99,Homeseer,2013-03-28 21:08:00,
2013-03-28 17:13:00,47.0,36.0,29.76,North,-999,-999.0,-999.0,56,-99.99,,,-99.99,Homeseer,2013-03-28 21:13:00,
2013-03-28 17:18:00,46.8,36.2,29.77,North,-999,-999.0,-999.0,57,-99.99,,,-99.99,Homeseer,2013-03-28 21:18:00,
2013-03-28 17:23:00,47.1,36.5,29.76,North,-999,-999.0,-999.0,57,-99.99,,,-99.99,Homeseer,2013-03-28 21:23:00,
2013-03-28 17:28:00,47.1,36.1,29.77,North,-999,-999.0,-999.0,56,-99.99,,,-99.99,Homeseer,2013-03-28 21:28:00,
2013-03-28 17:33:00,47.0,36.0,29.77,North,-999,-999.0,-999.0,56,-99.99,,,-99.99,Homeseer,2013-03-28 21:33:00,
2013-03-28 17:38:00,46.9,36.6,29.77,North,-999,-999.0,-999.0,58,-99.99,,,-99.99,Homeseer,2013-03-28 21:38:00,
2013-03-28 17:43:00,47.1,36.5,29.77,North,-999,-999.0,-999.0,57,-99.99,,,-99.99,Homeseer,2013-03-28 21:43:00,
2013-03-28 17:48:00,47.2,36.5,29.77,North,-999,-999.0,-999.0,57,-99.99,,,-99.99,Homeseer,2013-03-28 21:48:00,
2013-03-28 17:53:00,46.9,37.2,29.77,North,-999,-999.0,-999.0,60,-99.99,,,-99.99,Homeseer,2013-03-28 21:53:00,
2013-03-28 17:59:00,47.0,36.4,29.77,North,-999,-999.0,-999.0,57,-99.99,,,-99.99,Homeseer,2013-03-28 21:59:00,
2013-03-28 18:04:00,46.9,35.9,29.77,North,-999,-999.0,-999.0,56,-99.99,,,-99.99,Homeseer,2013-03-28 22:04:00,
2013-03-28 18:09:00,47.0,36.0,29.77,North,-999,-999.0,-999.0,56,-99.99,,,-99.99,Homeseer,2013-03-28 22:09:00,
2013-03-28 18:14:00,47.0,35.7,29.77,North,-999,-999.0,-999.0,55,-99.99,,,-99.99,Homeseer,2013-03-28 22:14:00,
2013-03-28 18:19:00,47.0,36.0,29.78,North,-999,-999.0,-999.0,56,-99.99,,,-99.99,Homeseer,2013-03-28 22:19:00,
2013-03-28 18:24:00,46.9,35.9,29.78,North,-999,-999.0,-999.0,56,-99.99,,,-99.99,Homeseer,2013-03-28 22:24:00,
2013-03-28 18:29:00,46.8,36.5,29.79,North,-999,-999.0,-999.0,58,-99.99,,,-99.99,Homeseer,2013-03-28 22:29:00,
2013-03-28 18:34:00,46.6,37.2,29.79,North,-999,-999.0,-999.0,61,-99.99,,,-99.99,Homeseer,2013-03-28 22:34:00,
2013-03-28 18:39:00,46.1,36.8,29.79,North,-999,-999.0,-999.0,61,-99.99,,,-99.99,Homeseer,2013-03-28 22:39:00,
2013-03-28 18:44:00,45.6,36.3,29.79,North,-999,-999.0,-999.0,61,-99.99,,,-99.99,Homeseer,2013-03-28 22:44:00,
2013-03-28 18:49:00,45.4,36.7,29.79,North,-999,-999.0,-999.0,63,-99.99,,,-99.99,Homeseer,2013-03-28 22:49:00,
2013-03-28 18:54:00,45.0,36.3,29.80,North,-999,-999.0,-999.0,63,-99.99,,,-99.99,Homeseer,2013-03-28 22:54:00,
2013-03-28 18:59:00,44.5,35.6,29.80,North,-999,-999.0,-999.0,62,-99.99,,,-99.99,Homeseer,2013-03-28 22:59:00,
2013-03-28 19:04:00,44.5,34.0,29.80,North,-999,-999.0,-999.0,57,-99.99,,,-99.99,Homeseer,2013-03-28 23:04:00,
2013-03-28 19:09:00,44.9,34.4,29.80,North,-999,-999.0,-999.0,57,-99.99,,,-99.99,Homeseer,2013-03-28 23:09:00,
2013-03-28 19:14:00,45.1,34.9,29.81,North,-999,-999.0,-999.0,58,-99.99,,,-99.99,Homeseer,2013-03-28 23:14:00,
2013-03-28 19:19:00,45.1,35.2,29.81,North,-999,-999.0,-999.0,59,-99.99,,,-99.99,Homeseer,2013-03-28 23:19:00,
2013-03-28 19:24:00,44.8,34.9,29.81,North,-999,-999.0,-999.0,59,-99.99,,,-99.99,Homeseer,2013-03-28 23:24:00,
2013-03-28 19:29:00,44.5,35.3,29.81,North,-999,-999.0,-999.0,61,-99.99,,,-99.99,Homeseer,2013-03-28 23:29:00,
2013-03-28 19:34:00,44.1,34.9,29.81,North,-999,-999.0,-999.0,61,-99.99,,,-99.99,Homeseer,2013-03-28 23:34:00,
2013-03-28 19:39:00,43.7,34.8,29.82,North,-999,-999.0,-999.0,62,-99.99,,,-99.99,Homeseer,2013-03-28 23:39:00,
2013-03-28 19:44:00,43.6,35.0,29.82,North,-999,-999.0,-999.0,63,-99.99,,,-99.99,Homeseer,2013-03-28 23:44:00,
2013-03-28 19:49:00,43.3,35.0,29.82,North,-999,-999.0,-999.0,64,-99.99,,,-99.99,Homeseer,2013-03-28 23:49:00,
2013-03-28 19:54:00,42.8,34.8,29.82,North,-999,-999.0,-999.0,65,-99.99,,,-99.99,Homeseer,2013-03-28 23:54:00,
2013-03-28 19:59:00,42.6,34.6,29.81,North,-999,-999.0,-999.0,65,-99.99,,,-99.99,Homeseer,2013-03-28 23:59:00,
2013-03-28 20:04:00,42.4,34.4,29.81,North,-999,-999.0,-999.0,65,-99.99,,,-99.99,Homeseer,2013-03-29 00:04:00,
2013-03-28 20:09:00,42.5,34.2,29.82,North,-999,-999.0,-999.0,64,-99.99,,,-99.99,Homeseer,2013-03-29 00:09:00,
2013-03-28 20:14:00,42.6,34.6,29.82,North,-999,-999.0,-999.0,65,-99.99,,,-99.99,Homeseer,2013-03-29 00:14:00,
2013-03-28 20:19:00,42.5,34.8,29.82,North,-999,-999.0,-999.0,66,-99.99,,,-99.99,Homeseer,2013-03-29 00:19:00,
2013-03-28 20:24:00,42.2,34.8,29.82,North,-999,-999.0,-999.0,67,-99.99,,,-99.99,Homeseer,2013-03-29 00:24:00,
2013-03-28 20:29:00,42.2,34.5,29.83,North,-999,-999.0,-999.0,66,-99.99,,,-99.99,Homeseer,2013-03-29 00:29:00,
2013-03-28 20:34:00,41.9,34.5,29.83,North,-999,-999.0,-999.0,67,-99.99,,,-99.99,Homeseer,2013-03-29 00:34:00,
2013-03-28 20:39:00,41.9,34.5,29.83,North,-999,-999.0,-999.0,67,-99.99,,,-99.99,Homeseer,2013-03-29 00:39:00,
2013-03-28 20:44:00,41.8,34.7,29.83,North,-999,-999.0,-999.0,68,-99.99,,,-99.99,Homeseer,2013-03-29 00:44:00,
2013-03-28 20:49:00,41.5,34.7,29.83,North,-999,-999.0,-999.0,69,-99.99,,,-99.99,Homeseer,2013-03-29 00:49:00,
2013-03-28 20:54:00,41.4,34.6,29.83,North,-999,-999.0,-999.0,69,-99.99,,,-99.99,Homeseer,2013-03-29 00:54:00,
2013-03-28 20:59:00,41.4,34.6,29.84,North,-999,-999.0,-999.0,69,-99.99,,,-99.99,Homeseer,2013-03-29 00:59:00,
2013-03-28 21:04:00,41.2,34.6,29.84,North,-999,-999.0,-999.0,70,-99.99,,,-99.99,Homeseer,2013-03-29 01:04:00,
2013-03-28 21:09:00,41.0,34.4,29.84,North,-999,-999.0,-999.0,70,-99.99,,,-99.99,Homeseer,2013-03-29 01:09:00,
2013-03-28 21:14:00,41.0,34.4,29.84,North,-999,-999.0,-999.0,70,-99.99,,,-99.99,Homeseer,2013-03-29 01:14:00,
2013-03-28 21:19:00,40.8,34.2,29.84,North,-999,-999.0,-999.0,70,-99.99,,,-99.99,Homeseer,2013-03-29 01:19:00,
2013-03-28 21:24:00,40.8,34.5,29.85,North,-999,-999.0,-999.0,71,-99.99,,,-99.99,Homeseer,2013-03-29 01:24:00,
2013-03-28 21:29:00,40.6,34.3,29.85,North,-999,-999.0,-999.0,71,-99.99,,,-99.99,Homeseer,2013-03-29 01:29:00,
2013-03-28 21:34:00,40.5,34.2,29.85,North,-999,-999.0,-999.0,71,-99.99,,,-99.99,Homeseer,2013-03-29 01:34:00,
2013-03-28 21:39:00,40.5,34.5,29.85,North,-999,-999.0,-999.0,72,-99.99,,,-99.99,Homeseer,2013-03-29 01:39:00,
2013-03-28 21:44:00,40.2,34.4,29.85,North,-999,-999.0,-999.0,73,-99.99,,,-99.99,Homeseer,2013-03-29 01:44:00,
2013-03-28 21:49:00,40.2,34.2,29.85,North,-999,-999.0,-999.0,72,-99.99,,,-99.99,Homeseer,2013-03-29 01:49:00,
2013-03-28 21:54:00,40.1,34.3,29.85,North,-999,-999.0,-999.0,73,-99.99,,,-99.99,Homeseer,2013-03-29 01:54:00,
2013-03-28 22:00:00,40.1,34.3,29.85,North,-999,-999.0,-999.0,73,-99.99,,,-99.99,Homeseer,2013-03-29 02:00:00,
2013-03-28 22:05:00,40.1,34.3,29.85,North,-999,-999.0,-999.0,73,-99.99,,,-99.99,Homeseer,2013-03-29 02:05:00,
2013-03-28 22:10:00,39.9,34.1,29.85,North,-999,-999.0,-999.0,73,-99.99,,,-99.99,Homeseer,2013-03-29 02:10:00,
2013-03-28 22:15:00,39.8,34.0,29.85,North,-999,-999.0,-999.0,73,-99.99,,,-99.99,Homeseer,2013-03-29 02:15:00,
2013-03-28 22:20:00,39.8,34.0,29.85,North,-999,-999.0,-999.0,73,-99.99,,,-99.99,Homeseer,2013-03-29 02:20:00,
2013-03-28 22:25:00,39.7,34.2,29.84,North,-999,-999.0,-999.0,74,-99.99,,,-99.99,Homeseer,2013-03-29 02:25:00,
2013-03-28 22:30:00,39.8,34.0,29.85,North,-999,-999.0,-999.0,73,-99.99,,,-99.99,Homeseer,2013-03-29 02:30:00,
2013-03-28 22:35:00,39.8,34.0,29.85,North,-999,-999.0,-999.0,73,-99.99,,,-99.99,Homeseer,2013-03-29 02:35:00,
2013-03-28 22:40:00,39.7,33.9,29.85,North,-999,-999.0,-999.0,73,-99.99,,,-99.99,Homeseer,2013-03-29 02:40:00,
2013-03-28 22:45:00,39.6,34.1,29.85,North,-999,-999.0,-999.0,74,-99.99,,,-99.99,Homeseer,2013-03-29 02:45:00,
2013-03-28 22:50:00,39.6,34.1,29.85,North,-999,-999.0,-999.0,74,-99.99,,,-99.99,Homeseer,2013-03-29 02:50:00,
2013-03-28 22:55:00,39.5,34.0,29.85,North,-999,-999.0,-999.0,74,-99.99,,,-99.99,Homeseer,2013-03-29 02:55:00,
2013-03-28 23:00:00,39.5,34.0,29.85,North,-999,-999.0,-999.0,74,-99.99,,,-99.99,Homeseer,2013-03-29 03:00:00,
2013-03-28 23:05:00,39.5,34.2,29.85,North,-999,-999.0,-999.0,75,-99.99,,,-99.99,Homeseer,2013-03-29 03:05:00,
2013-03-28 23:10:00,39.4,33.9,29.85,North,-999,-999.0,-999.0,74,-99.99,,,-99.99,Homeseer,2013-03-29 03:10:00,
2013-03-28 23:15:00,39.4,34.1,29.85,North,-999,-999.0,-999.0,75,-99.99,,,-99.99,Homeseer,2013-03-29 03:15:00,
2013-03-28 23:20:00,39.4,34.1,29.85,North,-999,-999.0,-999.0,75,-99.99,,,-99.99,Homeseer,2013-03-29 03:20:00,
2013-03-28 23:25:00,39.2,33.9,29.85,North,-999,-999.0,-999.0,75,-99.99,,,-99.99,Homeseer,2013-03-29 03:25:00,
2013-03-28 23:30:00,39.1,33.9,29.85,North,-999,-999.0,-999.0,75,-99.99,,,-99.99,Homeseer,2013-03-29 03:30:00,
2013-03-28 23:35:00,39.1,34.3,29.84,North,-999,-999.0,-999.0,77,-99.99,,,-99.99,Homeseer,2013-03-29 03:35:00,
2013-03-28 23:40:00,39.0,34.0,29.84,North,-999,-999.0,-999.0,76,-99.99,,,-99.99,Homeseer,2013-03-29 03:40:00,
2013-03-28 23:45:00,39.0,34.2,29.85,North,-999,-999.0,-999.0,77,-99.99,,,-99.99,Homeseer,2013-03-29 03:45:00,
2013-03-28 23:50:00,38.7,33.7,29.85,North,-999,-999.0,-999.0,76,-99.99,,,-99.99,Homeseer,2013-03-29 03:50:00,
2013-03-28 23:55:00,38.8,34.0,29.85,North,-999,-999.0,-999.0,77,-99.99,,,-99.99,Homeseer,2013-03-29 03:55:00,